TAF and METAR

METAR for Norne Oil Field

ENNE 242350Z AUTO 28009KT 9999NDV OVC017/// 09/06 Q1030 W///S3
Report created 25. jun 01:50
report generated by an automatic observation system. wind 9 knots from W (280°) visibility > 10km overcast at 1700 feet Temperature 9° with dewpoint at 6° (Humidity 81.48%) Pressure 1030 hPa
No TAF available for Norne Oil Field